Lafox, Illinois
Current Conditions -  °F | °C
As of 3:59 PM on Monday 22 Dec 2014 (Local Time) from KDPA Reporting Station
Light Rain Light Rain  
Wind Chill: 31°   Ceiling: 600
Heat Index: 38°   Visibility: 2.5mi
Dew Point: 36°   Wind: 10mph
Humidity: 93%   Direction: 110°ESE
Pressure: 29.67"   Gusts: NA
Location:  41.89°N, 88.41°W
Report Text: KDPA 222159Z 11009KT 2 1/2SM -RA BR OVC006 03/02 A2967 RMK AO2 P0001 T00330022
Loading
Personal Weather Stations






























Interactive Weather Map New forecast layout! Learn more

10-Day Weather Forecast

Advertisements
Track Severe Weather on mobile